sensor_id;sensor_type;location;lat;lon;timestamp;P1;durP1;ratioP1;P2;durP2;ratioP2
58362;SDS011;54977;51.510;7.522;2022-11-20T00:03:06;23.00;;;10.32;;
58362;SDS011;54977;51.510;7.522;2022-11-20T00:08:08;18.27;;;8.30;;
58362;SDS011;54977;51.510;7.522;2022-11-20T00:13:11;17.40;;;9.57;;
58362;SDS011;54977;51.510;7.522;2022-11-20T00:18:13;18.38;;;9.95;;
58362;SDS011;54977;51.510;7.522;2022-11-20T00:23:15;24.15;;;9.48;;
58362;SDS011;54977;51.510;7.522;2022-11-20T00:28:18;26.42;;;8.90;;
58362;SDS011;54977;51.510;7.522;2022-11-20T00:33:20;23.38;;;8.98;;
58362;SDS011;54977;51.510;7.522;2022-11-20T00:38:22;15.93;;;8.05;;
58362;SDS011;54977;51.510;7.522;2022-11-20T00:43:25;15.90;;;7.72;;
58362;SDS011;54977;51.510;7.522;2022-11-20T00:48:28;17.67;;;8.32;;
58362;SDS011;54977;51.510;7.522;2022-11-20T00:53:30;17.95;;;10.88;;
58362;SDS011;54977;51.510;7.522;2022-11-20T00:58:34;23.42;;;11.10;;
58362;SDS011;54977;51.510;7.522;2022-11-20T01:03:38;16.98;;;8.88;;
58362;SDS011;54977;51.510;7.522;2022-11-20T01:08:41;25.33;;;10.20;;
58362;SDS011;54977;51.510;7.522;2022-11-20T01:13:45;19.73;;;9.55;;
58362;SDS011;54977;51.510;7.522;2022-11-20T01:18:47;19.30;;;9.88;;
58362;SDS011;54977;51.510;7.522;2022-11-20T01:23:50;19.45;;;8.95;;
58362;SDS011;54977;51.510;7.522;2022-11-20T01:28:54;16.75;;;9.52;;
58362;SDS011;54977;51.510;7.522;2022-11-20T01:33:57;19.00;;;9.18;;
58362;SDS011;54977;51.510;7.522;2022-11-20T01:39:00;18.63;;;9.90;;
58362;SDS011;54977;51.510;7.522;2022-11-20T01:44:04;19.48;;;10.07;;
58362;SDS011;54977;51.510;7.522;2022-11-20T01:49:08;20.10;;;9.30;;
58362;SDS011;54977;51.510;7.522;2022-11-20T01:54:12;21.38;;;11.00;;
58362;SDS011;54977;51.510;7.522;2022-11-20T01:59:18;22.05;;;10.65;;
58362;SDS011;54977;51.510;7.522;2022-11-20T02:04:21;20.25;;;11.00;;
58362;SDS011;54977;51.510;7.522;2022-11-20T02:09:23;22.45;;;10.05;;
58362;SDS011;54977;51.510;7.522;2022-11-20T02:14:27;21.50;;;10.00;;
58362;SDS011;54977;51.510;7.522;2022-11-20T02:19:30;17.88;;;8.85;;
58362;SDS011;54977;51.510;7.522;2022-11-20T02:24:34;20.98;;;9.48;;
58362;SDS011;54977;51.510;7.522;2022-11-20T02:29:37;25.30;;;11.55;;
58362;SDS011;54977;51.510;7.522;2022-11-20T02:34:39;21.98;;;10.73;;
58362;SDS011;54977;51.510;7.522;2022-11-20T02:39:43;20.55;;;10.35;;
58362;SDS011;54977;51.510;7.522;2022-11-20T02:44:45;22.70;;;10.15;;
58362;SDS011;54977;51.510;7.522;2022-11-20T02:54:51;18.60;;;10.32;;
58362;SDS011;54977;51.510;7.522;2022-11-20T02:59:53;17.70;;;9.25;;
58362;SDS011;54977;51.510;7.522;2022-11-20T03:04:55;18.02;;;9.38;;
58362;SDS011;54977;51.510;7.522;2022-11-20T03:15:01;19.67;;;8.85;;
58362;SDS011;54977;51.510;7.522;2022-11-20T03:20:03;20.30;;;8.85;;
58362;SDS011;54977;51.510;7.522;2022-11-20T03:25:06;18.48;;;9.85;;
58362;SDS011;54977;51.510;7.522;2022-11-20T03:30:10;20.90;;;10.20;;
58362;SDS011;54977;51.510;7.522;2022-11-20T03:35:13;20.58;;;10.23;;
58362;SDS011;54977;51.510;7.522;2022-11-20T03:40:15;20.50;;;9.10;;
58362;SDS011;54977;51.510;7.522;2022-11-20T03:45:18;17.27;;;9.70;;
58362;SDS011;54977;51.510;7.522;2022-11-20T03:50:21;16.90;;;8.27;;
58362;SDS011;54977;51.510;7.522;2022-11-20T04:00:26;17.70;;;9.00;;
58362;SDS011;54977;51.510;7.522;2022-11-20T04:05:28;20.42;;;9.43;;
58362;SDS011;54977;51.510;7.522;2022-11-20T04:15:34;18.20;;;9.95;;
58362;SDS011;54977;51.510;7.522;2022-11-20T04:20:36;19.83;;;9.63;;
58362;SDS011;54977;51.510;7.522;2022-11-20T04:30:42;18.73;;;9.80;;
58362;SDS011;54977;51.510;7.522;2022-11-20T04:35:44;16.45;;;8.98;;
58362;SDS011;54977;51.510;7.522;2022-11-20T04:40:49;21.30;;;9.48;;
58362;SDS011;54977;51.510;7.522;2022-11-20T04:45:52;15.90;;;8.32;;
58362;SDS011;54977;51.510;7.522;2022-11-20T04:50:55;13.80;;;7.90;;
58362;SDS011;54977;51.510;7.522;2022-11-20T04:55:59;16.02;;;8.23;;
58362;SDS011;54977;51.510;7.522;2022-11-20T05:01:03;14.85;;;7.97;;
58362;SDS011;54977;51.510;7.522;2022-11-20T05:06:06;18.40;;;9.15;;
58362;SDS011;54977;51.510;7.522;2022-11-20T05:11:09;16.10;;;8.15;;
58362;SDS011;54977;51.510;7.522;2022-11-20T05:16:14;15.48;;;6.55;;
58362;SDS011;54977;51.510;7.522;2022-11-20T05:21:16;12.73;;;7.00;;
58362;SDS011;54977;51.510;7.522;2022-11-20T05:26:19;13.52;;;7.05;;
58362;SDS011;54977;51.510;7.522;2022-11-20T05:31:24;16.48;;;6.95;;
58362;SDS011;54977;51.510;7.522;2022-11-20T05:36:26;14.75;;;7.28;;
58362;SDS011;54977;51.510;7.522;2022-11-20T05:46:31;12.13;;;6.20;;
58362;SDS011;54977;51.510;7.522;2022-11-20T05:51:34;12.82;;;6.32;;
